createdAt,value
2023-02-01T00:00:56.198Z,80.46
2023-02-01T00:03:24.428Z,80.54
2023-02-01T00:06:00.767Z,80.47
2023-02-01T00:08:29.112Z,80.72
2023-02-01T00:11:01.468Z,81.03
2023-02-01T00:13:33.529Z,81.31
2023-02-01T00:16:08.724Z,81.19
2023-02-01T00:18:37.725Z,80.83
2023-02-01T00:21:07.421Z,81.58
2023-02-01T00:23:36.296Z,81.71
2023-02-01T00:26:05.625Z,81.95
2023-02-01T00:28:34.000Z,81.99
2023-02-01T00:31:03.474Z,81.40
2023-02-01T00:33:32.422Z,82.56
2023-02-01T00:36:01.225Z,81.33
2023-02-01T00:38:31.319Z,82.60
2023-02-01T00:41:04.296Z,81.83
2023-02-01T00:43:33.007Z,81.54
2023-02-01T00:46:01.331Z,82.58
2023-02-01T00:48:29.676Z,81.64
2023-02-01T00:51:01.562Z,82.06
2023-02-01T00:53:32.180Z,82.21
2023-02-01T00:56:00.745Z,81.88
2023-02-01T00:58:29.882Z,81.64
2023-02-01T01:01:05.856Z,81.56
2023-02-01T01:03:35.679Z,82.03
2023-02-01T01:06:06.011Z,81.71
2023-02-01T01:08:35.997Z,80.99
2023-02-01T01:11:07.452Z,81.92
2023-02-01T01:13:35.969Z,81.62
2023-02-01T01:16:04.935Z,80.91
2023-02-01T01:18:34.081Z,81.38
2023-02-01T01:21:03.272Z,80.74
2023-02-01T01:23:31.736Z,81.69
2023-02-01T01:26:01.404Z,80.94
2023-02-01T01:28:29.971Z,80.89
2023-02-01T01:30:58.502Z,80.92
2023-02-01T01:33:27.554Z,81.19
2023-02-01T01:35:56.040Z,82.22
2023-02-01T01:38:24.453Z,81.73
2023-02-01T01:40:52.608Z,82.25
2023-02-01T01:43:23.574Z,82.11
2023-02-01T01:45:53.545Z,82.44
2023-02-01T01:48:26.188Z,82.76
2023-02-01T01:50:59.669Z,82.33
2023-02-01T01:53:30.310Z,81.68
2023-02-01T01:55:59.071Z,81.88
2023-02-01T01:58:29.961Z,82.03
2023-02-01T02:00:58.262Z,82.41
2023-02-01T02:03:31.208Z,82.44
2023-02-01T02:06:01.157Z,82.28
2023-02-01T02:08:29.634Z,81.39
2023-02-01T02:11:04.255Z,81.92
2023-02-01T02:13:36.480Z,81.84
2023-02-01T02:16:23.835Z,82.32
2023-02-01T02:18:59.252Z,82.68
2023-02-01T02:21:45.027Z,81.88
2023-02-01T02:24:29.883Z,81.94
2023-02-01T02:27:26.767Z,82.61
2023-02-01T02:30:29.550Z,81.91
2023-02-01T02:33:29.128Z,81.66
2023-02-01T02:36:02.426Z,82.20
2023-02-01T02:38:35.014Z,82.09
2023-02-01T02:41:08.998Z,81.68
2023-02-01T02:43:57.704Z,81.94
2023-02-01T02:46:45.047Z,82.84
2023-02-01T02:49:16.062Z,82.85
2023-02-01T02:52:06.057Z,82.65
2023-02-01T02:58:04.173Z,82.48
2023-02-01T03:00:52.209Z,82.62
2023-02-01T03:03:38.005Z,83.57
2023-02-01T03:06:06.746Z,83.06
2023-02-01T03:08:36.647Z,83.01
2023-02-01T03:11:07.552Z,83.85
2023-02-01T03:13:40.034Z,84.07
2023-02-01T03:16:15.497Z,84.04
2023-02-01T03:18:49.497Z,84.05
2023-02-01T03:21:20.851Z,83.81
2023-02-01T03:23:51.777Z,83.03
2023-02-01T03:26:21.809Z,84.16
2023-02-01T03:28:55.400Z,83.92
2023-02-01T03:31:24.738Z,83.27
2023-02-01T03:33:53.749Z,83.71
2023-02-01T03:36:28.100Z,84.34
2023-02-01T03:39:03.870Z,83.26
2023-02-01T03:41:38.155Z,84.31
2023-02-01T03:44:11.581Z,84.24
2023-02-01T03:46:42.953Z,83.80
2023-02-01T03:49:20.723Z,83.66
2023-02-01T03:51:49.964Z,83.99
2023-02-01T03:54:20.185Z,84.23
2023-02-01T03:56:49.970Z,83.82
2023-02-01T03:59:18.782Z,84.34
2023-02-01T04:01:48.081Z,84.67
2023-02-01T04:04:20.957Z,84.55
2023-02-01T04:06:52.578Z,84.78
2023-02-01T04:09:23.257Z,85.07
2023-02-01T04:11:51.574Z,85.27
2023-02-01T04:14:19.830Z,84.72
2023-02-01T04:16:48.121Z,85.25
2023-02-01T04:19:16.313Z,85.41
2023-02-01T04:21:44.521Z,85.43
2023-02-01T04:24:13.049Z,84.81
2023-02-01T04:26:44.221Z,85.15
2023-02-01T04:29:12.667Z,85.74
2023-02-01T04:31:41.291Z,84.99
2023-02-01T04:34:09.481Z,85.02
2023-02-01T04:36:39.936Z,85.87
2023-02-01T04:39:08.075Z,85.50
2023-02-01T04:41:36.201Z,85.08
2023-02-01T04:44:05.976Z,85.46
2023-02-01T04:46:34.386Z,85.41
2023-02-01T04:49:02.530Z,85.47
2023-02-01T04:51:31.280Z,85.38
2023-02-01T04:53:59.699Z,85.49
2023-02-01T04:56:28.056Z,85.14
2023-02-01T04:58:56.994Z,85.13
2023-02-01T05:01:27.029Z,84.56
2023-02-01T05:03:55.475Z,85.25
2023-02-01T05:06:24.358Z,85.47
2023-02-01T05:08:52.646Z,84.76
2023-02-01T05:11:38.462Z,84.60
2023-02-01T05:14:06.674Z,84.87
2023-02-01T05:16:36.130Z,84.72
2023-02-01T05:19:04.314Z,84.10
2023-02-01T05:21:32.336Z,84.11
2023-02-01T05:24:14.291Z,84.90
2023-02-01T05:26:43.037Z,84.38
2023-02-01T05:29:11.957Z,83.58
2023-02-01T05:31:41.690Z,84.55
2023-02-01T05:34:10.563Z,83.67
2023-02-01T05:36:38.843Z,84.28
2023-02-01T05:39:07.304Z,83.97
2023-02-01T05:41:35.638Z,83.32
2023-02-01T05:44:03.865Z,83.81
2023-02-01T05:46:32.061Z,82.93
2023-02-01T05:49:01.782Z,82.78
2023-02-01T05:51:30.109Z,83.48
2023-02-01T05:53:58.331Z,82.99
2023-02-01T05:56:26.736Z,83.82
2023-02-01T05:58:55.176Z,83.30
2023-02-01T06:01:23.836Z,82.51
2023-02-01T06:03:52.219Z,83.30
2023-02-01T06:06:21.683Z,83.49
2023-02-01T06:08:49.891Z,83.48
2023-02-01T06:11:31.889Z,83.57
2023-02-01T06:14:00.861Z,83.43
2023-02-01T06:16:29.257Z,84.00
2023-02-01T06:18:57.574Z,83.48
2023-02-01T06:21:27.062Z,82.68
2023-02-01T06:23:55.851Z,82.92
2023-02-01T06:26:24.441Z,82.67
2023-02-01T06:28:53.015Z,82.69
2023-02-01T06:31:21.515Z,82.80
2023-02-01T06:33:49.898Z,83.05
2023-02-01T06:36:19.763Z,82.43
2023-02-01T06:38:49.509Z,82.89
2023-02-01T06:41:17.951Z,82.04
2023-02-01T06:43:46.665Z,81.46
2023-02-01T06:46:15.558Z,82.38
2023-02-01T06:48:43.754Z,81.71
2023-02-01T06:51:21.624Z,81.68
2023-02-01T06:53:51.131Z,82.27
2023-02-01T06:56:19.323Z,82.03
2023-02-01T06:58:47.650Z,82.04
2023-02-01T07:01:16.398Z,82.36
2023-02-01T07:03:45.041Z,81.72
2023-02-01T07:06:13.180Z,81.43
2023-02-01T07:08:41.369Z,81.19
2023-02-01T07:11:12.729Z,81.36
2023-02-01T07:13:41.448Z,81.87
2023-02-01T07:16:12.773Z,80.88
2023-02-01T07:18:41.068Z,81.41
2023-02-01T07:21:09.664Z,81.16
2023-02-01T07:23:41.037Z,80.94
2023-02-01T07:26:13.279Z,81.60
2023-02-01T07:28:41.716Z,80.75
2023-02-01T07:31:12.603Z,81.29
2023-02-01T07:33:40.771Z,80.54
2023-02-01T07:36:13.919Z,80.53
2023-02-01T07:38:42.166Z,80.92
2023-02-01T07:41:12.414Z,81.15
2023-02-01T07:43:40.912Z,80.71
2023-02-01T07:46:09.322Z,80.18
2023-02-01T07:48:37.431Z,80.51
2023-02-01T07:51:07.375Z,80.71
2023-02-01T07:53:36.306Z,80.50
2023-02-01T07:56:10.601Z,80.48
2023-02-01T07:58:41.296Z,80.36
2023-02-01T08:01:22.159Z,80.34
2023-02-01T08:03:51.561Z,79.70
2023-02-01T08:06:21.030Z,78.74
2023-02-01T08:08:49.145Z,78.89
2023-02-01T08:11:18.027Z,78.86
2023-02-01T08:13:47.925Z,79.09
2023-02-01T08:16:18.074Z,78.99
2023-02-01T08:18:46.752Z,79.33
2023-02-01T08:21:16.672Z,79.07
2023-02-01T08:23:45.582Z,78.08
2023-02-01T08:26:15.780Z,77.81
2023-02-01T08:28:45.816Z,78.20
2023-02-01T08:31:16.982Z,78.53
2023-02-01T08:33:46.274Z,77.71
2023-02-01T08:36:14.326Z,77.96
2023-02-01T08:39:10.109Z,78.05
2023-02-01T08:41:38.303Z,77.35
2023-02-01T08:44:06.982Z,77.32
2023-02-01T08:46:36.510Z,77.02
2023-02-01T08:49:04.743Z,78.42
2023-02-01T08:51:32.930Z,77.02
2023-02-01T08:54:02.074Z,77.36
2023-02-01T08:56:30.368Z,77.03
2023-02-01T08:58:58.784Z,76.95
2023-02-01T09:01:26.876Z,77.30
2023-02-01T09:03:56.532Z,77.25
2023-02-01T09:06:24.964Z,76.47
2023-02-01T09:08:53.224Z,77.38
2023-02-01T09:11:21.531Z,76.66
2023-02-01T09:13:50.388Z,76.32
2023-02-01T09:16:18.712Z,76.45
2023-02-01T09:18:56.139Z,76.32
2023-02-01T09:21:31.378Z,76.27
2023-02-01T09:23:59.717Z,76.05
2023-02-01T09:26:32.542Z,74.63
2023-02-01T09:29:01.379Z,75.17
2023-02-01T09:31:29.972Z,74.99
2023-02-01T09:33:58.542Z,75.79
2023-02-01T09:36:26.719Z,75.53
2023-02-01T09:38:56.182Z,74.93
2023-02-01T09:41:40.106Z,74.56
2023-02-01T09:44:22.300Z,75.19
2023-02-01T09:46:52.300Z,74.85
2023-02-01T09:49:28.474Z,75.65
2023-02-01T09:51:58.019Z,74.87
2023-02-01T09:54:30.816Z,75.46
2023-02-01T09:57:04.613Z,74.88
2023-02-01T09:59:37.519Z,74.56
2023-02-01T10:02:10.661Z,75.22
2023-02-01T10:04:39.441Z,75.31
2023-02-01T10:07:26.120Z,74.66
2023-02-01T10:10:01.240Z,75.27
2023-02-01T10:12:51.701Z,74.88
2023-02-01T10:15:35.684Z,75.58
2023-02-01T10:18:16.205Z,75.11
2023-02-01T10:20:53.602Z,76.60
2023-02-01T10:23:34.924Z,75.79
2023-02-01T10:26:08.483Z,76.28
2023-02-01T10:28:37.058Z,76.74
2023-02-01T10:31:05.565Z,76.34
2023-02-01T10:33:44.332Z,75.17
2023-02-01T10:36:18.056Z,75.90
2023-02-01T10:38:46.770Z,75.09
2023-02-01T10:41:19.348Z,74.65
2023-02-01T10:43:50.531Z,74.60
2023-02-01T10:46:18.789Z,75.67
2023-02-01T10:48:47.681Z,75.37
2023-02-01T10:51:20.907Z,74.91
2023-02-01T10:53:52.865Z,75.08
2023-02-01T10:56:26.319Z,73.92
2023-02-01T10:59:02.306Z,73.60
2023-02-01T11:01:33.142Z,74.20
2023-02-01T11:04:02.505Z,74.13
2023-02-01T11:06:33.264Z,74.23
2023-02-01T11:09:14.866Z,74.19
2023-02-01T11:11:57.841Z,74.15
2023-02-01T11:14:36.175Z,74.40
2023-02-01T11:17:18.788Z,73.75
2023-02-01T11:19:47.408Z,73.27
2023-02-01T11:22:16.213Z,72.99
2023-02-01T11:24:47.125Z,73.88
2023-02-01T11:27:27.136Z,73.26
2023-02-01T11:29:59.890Z,72.98
2023-02-01T11:32:29.380Z,72.58
2023-02-01T11:34:59.416Z,72.49
2023-02-01T11:37:29.260Z,71.95
2023-02-01T11:39:59.116Z,72.74
2023-02-01T11:42:29.879Z,73.46
2023-02-01T11:45:20.501Z,73.04
2023-02-01T11:47:48.826Z,72.31
2023-02-01T11:50:18.648Z,72.21
2023-02-01T11:52:58.010Z,71.94
2023-02-01T11:55:42.034Z,72.90
2023-02-01T11:58:25.376Z,72.26
2023-02-01T12:01:03.883Z,72.33
2023-02-01T12:04:03.950Z,72.88
2023-02-01T12:06:42.194Z,73.98
2023-02-01T12:09:19.202Z,74.22
2023-02-01T12:12:01.689Z,75.11
2023-02-01T12:14:40.471Z,74.75
2023-02-01T12:17:25.821Z,75.08
2023-02-01T12:20:09.144Z,75.93
2023-02-01T12:22:48.077Z,78.06
2023-02-01T12:25:30.525Z,76.87
2023-02-01T12:28:21.806Z,76.62
2023-02-01T12:31:06.351Z,76.94
2023-02-01T12:33:46.054Z,76.32
2023-02-01T12:36:18.696Z,74.86
2023-02-01T12:39:00.456Z,75.10
2023-02-01T12:41:41.038Z,74.63
2023-02-01T12:44:13.484Z,74.45
2023-02-01T12:46:46.147Z,75.11
2023-02-01T12:49:17.862Z,74.66
2023-02-01T12:51:48.405Z,74.41
2023-02-01T12:54:21.507Z,74.39
2023-02-01T12:56:51.863Z,74.29
2023-02-01T12:59:23.479Z,72.62
2023-02-01T13:01:57.624Z,73.79
2023-02-01T13:04:29.341Z,73.14
2023-02-01T13:07:03.882Z,72.99
2023-02-01T13:09:36.833Z,72.21
2023-02-01T13:12:09.833Z,72.20
2023-02-01T13:14:41.136Z,72.13
2023-02-01T13:17:13.835Z,72.45
2023-02-01T13:19:47.341Z,72.46
2023-02-01T13:22:19.740Z,72.60
2023-02-01T13:24:50.257Z,71.66
2023-02-01T13:27:19.026Z,72.22
2023-02-01T13:29:52.378Z,72.14
2023-02-01T13:32:56.994Z,71.73
2023-02-01T13:35:47.971Z,71.63
2023-02-01T13:38:36.880Z,71.68
2023-02-01T13:41:18.244Z,71.80
2023-02-01T13:43:48.940Z,71.36
2023-02-01T13:46:18.147Z,72.39
2023-02-01T13:48:51.751Z,71.76
2023-02-01T13:51:35.009Z,71.11
2023-02-01T13:54:03.207Z,71.21
2023-02-01T13:56:42.303Z,71.87
2023-02-01T14:00:01.159Z,71.25
2023-02-01T14:02:50.917Z,69.93
2023-02-01T14:05:56.335Z,71.20
2023-02-01T14:08:39.139Z,71.27
2023-02-01T14:11:07.588Z,71.29
2023-02-01T14:13:37.061Z,70.99
2023-02-01T14:16:17.148Z,70.83
2023-02-01T14:18:59.540Z,70.99
2023-02-01T14:21:30.406Z,70.48
2023-02-01T14:24:02.336Z,71.11
2023-02-01T14:26:44.580Z,70.55
2023-02-01T14:29:24.718Z,71.42
2023-02-01T14:32:03.617Z,71.27
2023-02-01T14:34:37.008Z,71.23
2023-02-01T14:37:07.320Z,70.67
2023-02-01T14:39:41.040Z,69.68
2023-02-01T14:42:22.920Z,69.79
2023-02-01T14:44:59.096Z,69.63
2023-02-01T14:47:31.971Z,69.44
2023-02-01T14:50:24.239Z,69.41
2023-02-01T14:53:10.535Z,70.02
2023-02-01T14:55:43.123Z,70.23
2023-02-01T14:58:20.073Z,70.62
2023-02-01T15:00:51.125Z,71.25
2023-02-01T15:03:32.562Z,70.60
2023-02-01T15:06:01.952Z,71.23
2023-02-01T15:08:32.441Z,70.84
2023-02-01T15:11:05.063Z,70.80
2023-02-01T15:13:33.238Z,70.21
2023-02-01T15:16:26.801Z,70.38
2023-02-01T15:19:13.528Z,69.39
2023-02-01T15:21:47.336Z,70.48
2023-02-01T15:24:16.806Z,70.69
2023-02-01T15:26:46.645Z,70.94
2023-02-01T15:29:15.923Z,70.98
2023-02-01T15:31:46.062Z,71.62
2023-02-01T15:34:14.689Z,71.35
2023-02-01T15:36:56.615Z,72.63
2023-02-01T15:39:31.912Z,72.55
2023-02-01T15:42:04.122Z,71.79
2023-02-01T15:44:36.224Z,71.33
2023-02-01T15:47:10.297Z,72.00
2023-02-01T15:49:42.905Z,71.75
2023-02-01T15:52:28.101Z,72.15
2023-02-01T15:54:58.155Z,70.96
2023-02-01T15:57:32.514Z,71.08
2023-02-01T16:00:02.605Z,71.01
2023-02-01T16:02:46.221Z,71.33
2023-02-01T16:05:34.365Z,71.59
2023-02-01T16:08:05.614Z,71.05
2023-02-01T16:10:34.436Z,70.10
2023-02-01T16:13:03.904Z,70.88
2023-02-01T16:15:33.035Z,70.67
2023-02-01T16:18:01.246Z,70.94
2023-02-01T16:20:30.737Z,70.55
2023-02-01T16:22:59.068Z,69.98
2023-02-01T16:25:27.213Z,70.64
2023-02-01T16:27:55.822Z,71.03
2023-02-01T16:30:25.796Z,69.52
2023-02-01T16:32:56.035Z,69.21
2023-02-01T16:35:28.261Z,69.32
2023-02-01T16:37:57.020Z,70.42
2023-02-01T16:40:25.297Z,70.12
2023-02-01T16:42:56.190Z,70.42
2023-02-01T16:45:28.593Z,70.42
2023-02-01T16:47:58.237Z,69.93
2023-02-01T16:50:27.593Z,69.76
2023-02-01T16:52:55.929Z,70.56
2023-02-01T16:55:26.479Z,70.36
2023-02-01T16:57:54.849Z,70.05
2023-02-01T17:00:25.827Z,70.21
2023-02-01T17:02:56.342Z,69.31
2023-02-01T17:05:25.479Z,69.44
2023-02-01T17:07:54.602Z,69.40
2023-02-01T17:10:34.512Z,70.13
2023-02-01T17:13:03.845Z,69.94
2023-02-01T17:15:36.969Z,70.09
2023-02-01T17:18:07.995Z,69.72
2023-02-01T17:20:37.778Z,69.75
2023-02-01T17:23:06.069Z,70.42
2023-02-01T17:25:34.308Z,69.69
2023-02-01T17:28:02.998Z,69.92
2023-02-01T17:30:32.098Z,70.36
2023-02-01T17:33:10.177Z,70.42
2023-02-01T17:35:46.616Z,70.39
2023-02-01T17:38:15.431Z,70.93
2023-02-01T17:40:43.560Z,71.18
2023-02-01T17:43:15.237Z,71.18
2023-02-01T17:45:51.811Z,70.51
2023-02-01T17:48:21.145Z,71.05
2023-02-01T17:50:54.684Z,70.06
2023-02-01T17:53:24.698Z,71.43
2023-02-01T17:55:53.720Z,70.54
2023-02-01T17:58:22.851Z,70.71
2023-02-01T18:00:51.584Z,71.50
2023-02-01T18:03:24.917Z,71.25
2023-02-01T18:05:55.862Z,70.92
2023-02-01T18:08:25.526Z,70.89
2023-02-01T18:10:55.469Z,70.97
2023-02-01T18:13:24.031Z,70.89
2023-02-01T18:15:52.377Z,70.51
2023-02-01T18:18:20.766Z,70.14
2023-02-01T18:20:49.629Z,71.01
2023-02-01T18:23:21.791Z,70.92
2023-02-01T18:25:51.475Z,70.96
2023-02-01T18:28:20.624Z,70.84
2023-02-01T18:30:50.847Z,69.87
2023-02-01T18:33:20.287Z,71.14
2023-02-01T18:35:49.269Z,70.78
2023-02-01T18:38:19.224Z,71.56
2023-02-01T18:40:51.050Z,71.37
2023-02-01T18:43:19.498Z,71.55
2023-02-01T18:45:48.458Z,70.89
2023-02-01T18:48:19.575Z,71.07
2023-02-01T18:50:47.994Z,71.20
2023-02-01T18:53:20.078Z,70.64
2023-02-01T18:55:49.804Z,70.27
2023-02-01T18:58:18.930Z,71.33
2023-02-01T19:00:48.101Z,70.97
2023-02-01T19:03:16.928Z,70.89
2023-02-01T19:05:45.315Z,70.50
2023-02-01T19:08:13.518Z,70.86
2023-02-01T19:10:43.018Z,69.79
2023-02-01T19:13:14.297Z,69.46
2023-02-01T19:15:43.858Z,70.55
2023-02-01T19:18:12.451Z,70.32
2023-02-01T19:20:45.572Z,70.43
2023-02-01T19:23:14.474Z,70.03
2023-02-01T19:25:44.895Z,70.53
2023-02-01T19:28:14.384Z,70.01
2023-02-01T19:30:43.000Z,69.97
2023-02-01T19:33:11.221Z,70.10
2023-02-01T19:35:39.376Z,69.39
2023-02-01T19:38:07.902Z,69.87
2023-02-01T19:40:36.045Z,69.24
2023-02-01T19:43:04.364Z,70.18
2023-02-01T19:45:34.514Z,68.82
2023-02-01T19:48:03.347Z,70.20
2023-02-01T19:50:31.504Z,69.74
2023-02-01T19:52:59.679Z,70.05
2023-02-01T19:55:27.893Z,69.76
2023-02-01T19:57:56.124Z,69.16
2023-02-01T20:00:24.284Z,69.37
2023-02-01T20:02:54.088Z,69.85
2023-02-01T20:05:23.741Z,69.53
2023-02-01T20:07:52.532Z,69.58
2023-02-01T20:10:20.648Z,69.95
2023-02-01T20:12:49.529Z,69.79
2023-02-01T20:15:17.923Z,69.45
2023-02-01T20:17:46.085Z,69.92
2023-02-01T20:20:16.402Z,70.32
2023-02-01T20:22:45.396Z,69.98
2023-02-01T20:25:13.755Z,69.63
2023-02-01T20:27:42.770Z,69.05
2023-02-01T20:30:14.137Z,68.85
2023-02-01T20:32:42.338Z,68.70
2023-02-01T20:35:11.035Z,68.87
2023-02-01T20:37:42.775Z,68.65
2023-02-01T20:40:12.409Z,69.21
2023-02-01T20:42:41.643Z,69.32
2023-02-01T20:45:10.787Z,68.46
2023-02-01T20:47:39.080Z,68.64
2023-02-01T20:50:08.098Z,68.75
2023-02-01T20:52:36.529Z,69.06
2023-02-01T20:55:07.017Z,69.18
2023-02-01T20:57:35.293Z,68.89
2023-02-01T21:00:04.433Z,69.73
2023-02-01T21:02:32.592Z,70.17
2023-02-01T21:05:00.730Z,70.57
2023-02-01T21:07:28.880Z,71.27
2023-02-01T21:09:57.657Z,71.41
2023-02-01T21:12:27.183Z,72.59
2023-02-01T21:14:55.796Z,73.88
2023-02-01T21:17:25.632Z,74.29
2023-02-01T21:19:53.774Z,74.71
2023-02-01T21:22:22.196Z,74.66
2023-02-01T21:24:50.274Z,74.74
2023-02-01T21:27:18.597Z,75.13
2023-02-01T21:29:48.059Z,74.26
2023-02-01T21:32:16.535Z,75.00
2023-02-01T21:34:45.062Z,74.09
2023-02-01T21:37:13.159Z,74.00
2023-02-01T21:39:41.528Z,73.63
2023-02-01T21:42:18.220Z,73.85
2023-02-01T21:44:48.515Z,73.57
2023-02-01T21:47:26.133Z,73.96
2023-02-01T21:49:57.072Z,73.87
2023-02-01T21:52:25.299Z,74.43
2023-02-01T21:54:59.434Z,74.01
2023-02-01T21:57:28.129Z,73.92
2023-02-01T21:59:58.954Z,74.02
2023-02-01T22:02:27.428Z,73.71
2023-02-01T22:04:57.778Z,74.15
2023-02-01T22:07:26.170Z,74.25
2023-02-01T22:09:54.726Z,74.53
2023-02-01T22:12:23.484Z,73.14
2023-02-01T22:14:52.400Z,73.46
2023-02-01T22:17:22.388Z,72.94
2023-02-01T22:19:51.140Z,73.57
2023-02-01T22:22:19.346Z,72.80
2023-02-01T22:24:47.908Z,72.83
2023-02-01T22:27:16.717Z,73.10
2023-02-01T22:29:44.877Z,73.35
2023-02-01T22:32:14.107Z,72.25
2023-02-01T22:34:43.661Z,72.82
2023-02-01T22:37:12.306Z,72.36
2023-02-01T22:39:41.366Z,73.05
2023-02-01T22:42:09.693Z,72.91
2023-02-01T22:44:37.841Z,73.32
2023-02-01T22:47:06.306Z,71.47
2023-02-01T22:49:34.402Z,73.05
2023-02-01T22:52:03.863Z,72.89
2023-02-01T22:54:32.014Z,72.88
2023-02-01T22:57:00.331Z,71.98
2023-02-01T22:59:28.510Z,73.06
2023-02-01T23:01:56.617Z,73.36
2023-02-01T23:04:24.859Z,73.77
2023-02-01T23:06:53.185Z,73.38
2023-02-01T23:09:25.188Z,74.08
2023-02-01T23:11:53.941Z,74.70
2023-02-01T23:14:22.616Z,74.40
2023-02-01T23:16:51.249Z,74.42
2023-02-01T23:19:20.645Z,74.85
2023-02-01T23:21:49.692Z,74.70
2023-02-01T23:24:18.358Z,74.59
2023-02-01T23:26:48.029Z,75.94
2023-02-01T23:29:19.155Z,75.19
2023-02-01T23:31:47.461Z,75.71
2023-02-01T23:34:15.993Z,76.03
2023-02-01T23:36:44.351Z,75.14
2023-02-01T23:39:12.552Z,75.68
2023-02-01T23:41:40.909Z,77.91
2023-02-01T23:44:10.864Z,77.60
2023-02-01T23:46:41.107Z,78.09
2023-02-01T23:49:11.073Z,78.62
2023-02-01T23:51:39.352Z,79.74
2023-02-01T23:54:08.309Z,78.07
2023-02-01T23:56:38.287Z,78.51
2023-02-01T23:59:08.301Z,79.05
